Mumford, NY (14511)

10:15 AM EDT on July 29, 2016 (GMT -0400)
Mumford | | Change Station
Active Advisory: Beach Hazard Statement

Elev 600 ft 43.00 °N, 77.85 °W | Updated 26 seconds ago

Mostly Cloudy
Mostly Cloudy
74.5 °F
Feels Like 75 °F
N
1.1
Wind Variable Wind from WNW
Gusts 2.5 mph

Today
High -- | Low -- °F
--% Chance of Precip.
Yesterday
High -- | Low -- °F
Precip. -- in
Pressure 29.96 in
Visibility 10.0 miles
Clouds Few 2000 ft
Mostly Cloudy 7500 ft
Mostly Cloudy 9000 ft
Mostly Cloudy 18000 ft
Heat Index 75 °F
Dew Point 67 °F
Humidity 78%
Rainfall 0.00 in
Snow Depth Not available.
5:59 AM 8:35 PM
Waning Crescent, 21% visible
METAR KROC 291354Z 02010KT 10SM FEW020 BKN075 BKN090 BKN180 25/18 A2996 RMK AO2 SLP145 BKN180 V OVC T02500183
Pressure 29.96 in
Visibility 10.0 miles
Clouds Few 2000 ft
Mostly Cloudy 7500 ft
Mostly Cloudy 9000 ft
Mostly Cloudy 18000 ft
Heat Index 75 °F
Dew Point 67 °F
Humidity 78%
Rainfall 0.00 in
Snow Depth Not available.
5:59 AM 8:35 PM
Waning Crescent, 21% visible
METAR KROC 291354Z 02010KT 10SM FEW020 BKN075 BKN090 BKN180 25/18 A2996 RMK AO2 SLP145 BKN180 V OVC T02500183

10-Day Weather Forecast

Almanac

Astronomy

Jul. 29, 2016 Rise Set
Actual Time
Civil Twilight
Nautical Twilight
Astronomical Twilight
Moon
Length of Visible Light
Length of Day
Tomorrow will be .
, % of the Moon is Illuminated

Today's Extremes

State Highs State Lows

Community

WunderPhotos

Upload Photos

1,928,342 photos uploaded!

WunderBlog® & News

Nearby

Air Quality

  Air Quality AQ Index Pollutant
Not available.

Snow Depth

Station Depth Elevation

Earthquake Activity

City Distance Mag. Time & Date
Minimum magnitude displayed is 2.5.

Coastal Water Temperatures

Place Temperature

Stations

Nearby Weather Stations

Station Location Temp. Windchill Dew Point Humidity Wind Precip. Elev Updated Type
                   

Watches & Warnings

Beach Hazard Statement
Issued: 6:54 AM EDT Jul. 29, 2016 – National Weather Service

... Beach hazards statement remains in effect until 2 PM EDT this
afternoon...

* locations... beaches of Niagara... Orleans... Monroe... and Wayne
counties.

* Timing... from early this morning through early this afternoon.

* Impacts... strong currents and dangerous swimming conditions.

Precautionary/preparedness actions...

A beach hazards statement is issued when there is a high swim
risk. This means life threatening waves and currents are
expected. Stay out of the water and stay away from dangerous
areas like piers and breakwalls.